sensor_id;sensor_type;location;lat;lon;timestamp;temperature;humidity
40630;DHT22;26329;40.388;-3.710;2023-01-16T00:07:30;7.20;52.10
40630;DHT22;26329;40.388;-3.710;2023-01-16T00:17:32;7.10;51.50
40630;DHT22;26329;40.388;-3.710;2023-01-16T00:27:32;7.10;51.00
40630;DHT22;26329;40.388;-3.710;2023-01-16T00:37:34;7.10;51.30
40630;DHT22;26329;40.388;-3.710;2023-01-16T00:47:35;7.10;51.80
40630;DHT22;26329;40.388;-3.710;2023-01-16T00:57:36;7.20;51.50
40630;DHT22;26329;40.388;-3.710;2023-01-16T01:07:37;7.20;50.90
40630;DHT22;26329;40.388;-3.710;2023-01-16T01:17:39;7.20;51.10
40630;DHT22;26329;40.388;-3.710;2023-01-16T01:27:41;7.30;51.20
40630;DHT22;26329;40.388;-3.710;2023-01-16T01:37:43;7.40;51.60
40630;DHT22;26329;40.388;-3.710;2023-01-16T01:47:52;7.40;54.30
40630;DHT22;26329;40.388;-3.710;2023-01-16T01:57:58;7.20;56.50
40630;DHT22;26329;40.388;-3.710;2023-01-16T02:08:02;7.00;58.90
40630;DHT22;26329;40.388;-3.710;2023-01-16T02:18:09;6.80;62.90
40630;DHT22;26329;40.388;-3.710;2023-01-16T02:39:18;6.20;65.60
40630;DHT22;26329;40.388;-3.710;2023-01-16T02:59:32;5.90;66.70
40630;DHT22;26329;40.388;-3.710;2023-01-16T03:31:00;5.90;65.90
40630;DHT22;26329;40.388;-3.710;2023-01-16T03:41:27;5.90;66.40
40630;DHT22;26329;40.388;-3.710;2023-01-16T03:51:53;5.80;67.10
40630;DHT22;26329;40.388;-3.710;2023-01-16T04:02:15;5.80;67.10
40630;DHT22;26329;40.388;-3.710;2023-01-16T04:12:28;5.80;67.20
40630;DHT22;26329;40.388;-3.710;2023-01-16T04:22:35;5.90;67.50
40630;DHT22;26329;40.388;-3.710;2023-01-16T04:32:42;6.00;67.20
40630;DHT22;26329;40.388;-3.710;2023-01-16T04:42:46;6.10;68.00
40630;DHT22;26329;40.388;-3.710;2023-01-16T04:52:53;5.90;67.90
40630;DHT22;26329;40.388;-3.710;2023-01-16T05:02:56;5.70;68.80
40630;DHT22;26329;40.388;-3.710;2023-01-16T05:12:58;5.60;69.00
40630;DHT22;26329;40.388;-3.710;2023-01-16T05:23:01;5.80;68.40
40630;DHT22;26329;40.388;-3.710;2023-01-16T05:33:03;5.80;68.90
40630;DHT22;26329;40.388;-3.710;2023-01-16T05:43:06;5.80;69.40
40630;DHT22;26329;40.388;-3.710;2023-01-16T05:53:08;5.80;69.40
40630;DHT22;26329;40.388;-3.710;2023-01-16T06:03:10;5.90;69.70
40630;DHT22;26329;40.388;-3.710;2023-01-16T06:13:12;5.70;69.80
40630;DHT22;26329;40.388;-3.710;2023-01-16T06:23:14;5.90;70.00
40630;DHT22;26329;40.388;-3.710;2023-01-16T06:33:15;6.00;69.60
40630;DHT22;26329;40.388;-3.710;2023-01-16T06:43:17;6.20;69.70
40630;DHT22;26329;40.388;-3.710;2023-01-16T06:53:19;6.40;70.30
40630;DHT22;26329;40.388;-3.710;2023-01-16T07:03:21;6.30;70.60
40630;DHT22;26329;40.388;-3.710;2023-01-16T07:13:23;6.30;71.00
40630;DHT22;26329;40.388;-3.710;2023-01-16T07:23:33;6.40;71.40
40630;DHT22;26329;40.388;-3.710;2023-01-16T07:33:35;6.30;72.70
40630;DHT22;26329;40.388;-3.710;2023-01-16T07:43:37;6.10;73.50
40630;DHT22;26329;40.388;-3.710;2023-01-16T07:53:39;6.20;74.80
40630;DHT22;26329;40.388;-3.710;2023-01-16T08:03:40;6.40;74.90
40630;DHT22;26329;40.388;-3.710;2023-01-16T08:13:42;6.40;76.10
40630;DHT22;26329;40.388;-3.710;2023-01-16T08:23:44;6.40;77.00
40630;DHT22;26329;40.388;-3.710;2023-01-16T08:33:48;6.40;77.90
40630;DHT22;26329;40.388;-3.710;2023-01-16T08:43:50;6.70;78.10
40630;DHT22;26329;40.388;-3.710;2023-01-16T08:54:10;6.80;78.90
40630;DHT22;26329;40.388;-3.710;2023-01-16T09:04:12;7.00;78.20
40630;DHT22;26329;40.388;-3.710;2023-01-16T09:14:13;7.10;78.50
40630;DHT22;26329;40.388;-3.710;2023-01-16T09:24:15;7.20;78.70
40630;DHT22;26329;40.388;-3.710;2023-01-16T09:34:16;7.30;79.50
40630;DHT22;26329;40.388;-3.710;2023-01-16T09:44:17;7.40;80.00
40630;DHT22;26329;40.388;-3.710;2023-01-16T09:54:21;7.60;79.60
40630;DHT22;26329;40.388;-3.710;2023-01-16T10:04:43;7.80;79.70
40630;DHT22;26329;40.388;-3.710;2023-01-16T10:14:59;8.00;79.90
40630;DHT22;26329;40.388;-3.710;2023-01-16T10:25:15;7.90;80.70
40630;DHT22;26329;40.388;-3.710;2023-01-16T10:35:32;8.10;80.60
40630;DHT22;26329;40.388;-3.710;2023-01-16T10:45:36;8.50;79.50
40630;DHT22;26329;40.388;-3.710;2023-01-16T10:55:56;8.80;78.80
40630;DHT22;26329;40.388;-3.710;2023-01-16T11:06:25;9.00;78.30
40630;DHT22;26329;40.388;-3.710;2023-01-16T11:16:28;9.30;77.40
40630;DHT22;26329;40.388;-3.710;2023-01-16T11:26:51;9.50;76.50
40630;DHT22;26329;40.388;-3.710;2023-01-16T11:36:58;9.50;76.40
40630;DHT22;26329;40.388;-3.710;2023-01-16T11:47:01;9.70;76.10
40630;DHT22;26329;40.388;-3.710;2023-01-16T11:57:46;9.90;76.10
40630;DHT22;26329;40.388;-3.710;2023-01-16T12:18:17;10.60;75.10
40630;DHT22;26329;40.388;-3.710;2023-01-16T12:39:28;10.90;75.10
40630;DHT22;26329;40.388;-3.710;2023-01-16T13:10:27;11.30;73.60
40630;DHT22;26329;40.388;-3.710;2023-01-16T13:20:38;10.90;74.50
40630;DHT22;26329;40.388;-3.710;2023-01-16T13:30:41;11.00;74.40
40630;DHT22;26329;40.388;-3.710;2023-01-16T13:51:22;11.10;74.20
40630;DHT22;26329;40.388;-3.710;2023-01-16T14:22:02;11.30;73.30
40630;DHT22;26329;40.388;-3.710;2023-01-16T15:03:15;11.40;73.60
40630;DHT22;26329;40.388;-3.710;2023-01-16T15:33:33;11.30;74.60
40630;DHT22;26329;40.388;-3.710;2023-01-16T15:43:52;11.30;74.80
40630;DHT22;26329;40.388;-3.710;2023-01-16T15:54:14;11.50;74.80
40630;DHT22;26329;40.388;-3.710;2023-01-16T16:04:16;11.40;75.20
40630;DHT22;26329;40.388;-3.710;2023-01-16T16:14:32;11.40;75.50
40630;DHT22;26329;40.388;-3.710;2023-01-16T16:24:53;11.40;75.40
40630;DHT22;26329;40.388;-3.710;2023-01-16T16:34:56;11.40;75.50
40630;DHT22;26329;40.388;-3.710;2023-01-16T16:55:28;11.30;76.30
40630;DHT22;26329;40.388;-3.710;2023-01-16T17:05:30;11.40;76.40
40630;DHT22;26329;40.388;-3.710;2023-01-16T17:15:33;11.30;76.40
40630;DHT22;26329;40.388;-3.710;2023-01-16T17:25:34;11.30;76.70
40630;DHT22;26329;40.388;-3.710;2023-01-16T17:35:37;11.30;78.60
40630;DHT22;26329;40.388;-3.710;2023-01-16T17:45:44;11.20;79.20
40630;DHT22;26329;40.388;-3.710;2023-01-16T17:56:00;11.20;79.90
40630;DHT22;26329;40.388;-3.710;2023-01-16T18:06:05;11.20;79.50
40630;DHT22;26329;40.388;-3.710;2023-01-16T18:16:09;11.10;79.60
40630;DHT22;26329;40.388;-3.710;2023-01-16T18:26:30;11.10;80.20
40630;DHT22;26329;40.388;-3.710;2023-01-16T18:36:32;11.10;80.60
40630;DHT22;26329;40.388;-3.710;2023-01-16T18:46:33;11.20;80.60
40630;DHT22;26329;40.388;-3.710;2023-01-16T18:56:57;11.10;81.00
40630;DHT22;26329;40.388;-3.710;2023-01-16T19:07:26;11.10;81.60
40630;DHT22;26329;40.388;-3.710;2023-01-16T19:17:28;10.90;82.20
40630;DHT22;26329;40.388;-3.710;2023-01-16T19:27:30;11.00;82.00
40630;DHT22;26329;40.388;-3.710;2023-01-16T19:37:33;10.90;82.20
40630;DHT22;26329;40.388;-3.710;2023-01-16T19:47:34;10.90;82.10
40630;DHT22;26329;40.388;-3.710;2023-01-16T19:57:36;10.90;81.80
40630;DHT22;26329;40.388;-3.710;2023-01-16T20:07:39;10.90;81.70
40630;DHT22;26329;40.388;-3.710;2023-01-16T20:17:40;11.00;81.40
40630;DHT22;26329;40.388;-3.710;2023-01-16T20:27:42;11.00;81.00
40630;DHT22;26329;40.388;-3.710;2023-01-16T20:37:44;10.90;81.20
40630;DHT22;26329;40.388;-3.710;2023-01-16T20:47:45;10.90;81.60
40630;DHT22;26329;40.388;-3.710;2023-01-16T20:57:47;10.80;81.70
40630;DHT22;26329;40.388;-3.710;2023-01-16T21:07:49;10.80;81.60
40630;DHT22;26329;40.388;-3.710;2023-01-16T21:17:50;10.90;80.90
40630;DHT22;26329;40.388;-3.710;2023-01-16T21:28:11;11.00;80.80
40630;DHT22;26329;40.388;-3.710;2023-01-16T21:38:12;10.90;80.50
40630;DHT22;26329;40.388;-3.710;2023-01-16T21:48:18;10.80;81.00
40630;DHT22;26329;40.388;-3.710;2023-01-16T21:58:29;10.80;81.00
40630;DHT22;26329;40.388;-3.710;2023-01-16T22:08:30;10.70;81.00
40630;DHT22;26329;40.388;-3.710;2023-01-16T22:18:33;10.80;80.70
40630;DHT22;26329;40.388;-3.710;2023-01-16T22:28:35;10.60;80.80
40630;DHT22;26329;40.388;-3.710;2023-01-16T22:38:38;10.60;80.40
40630;DHT22;26329;40.388;-3.710;2023-01-16T22:48:41;10.60;80.50
40630;DHT22;26329;40.388;-3.710;2023-01-16T22:58:43;10.60;80.10
40630;DHT22;26329;40.388;-3.710;2023-01-16T23:08:45;10.50;80.30
40630;DHT22;26329;40.388;-3.710;2023-01-16T23:18:46;10.60;80.30
40630;DHT22;26329;40.388;-3.710;2023-01-16T23:28:51;10.50;81.00
40630;DHT22;26329;40.388;-3.710;2023-01-16T23:38:54;10.50;81.00
40630;DHT22;26329;40.388;-3.710;2023-01-16T23:48:56;10.40;81.40
40630;DHT22;26329;40.388;-3.710;2023-01-16T23:58:58;10.40;81.80
